Time;durP1;ratioP1;P1;durP2;ratioP2;P2;SDS_P1;SDS_P2;PMS_P1;PMS_P2;Temp;Humidity;BMP_temperature;BMP_pressure;BME280_temperature;BME280_humidity;BME280_pressure;Samples;Min_cycle;Max_cycle;Signal;HPM_P1;HPM_P2
2021/12/20 00:01:48;;;;;;;25.20;4.47;;;6.60;99.90;;;;;;5112140;27;20078;-65
2021/12/20 00:04:13;;;;;;;23.77;4.10;;;6.60;99.90;;;;;;5106933;27;20035;-65
2021/12/20 00:06:39;;;;;;;29.00;4.22;;;6.60;99.90;;;;;;5110842;27;20049;-65
2021/12/20 00:09:05;;;;;;;28.08;6.18;;;6.70;99.90;;;;;;5130159;27;20056;-65
2021/12/20 00:11:31;;;;;;;25.88;4.93;;;6.70;99.90;;;;;;5105737;27;20074;-65
2021/12/20 00:13:56;;;;;;;24.13;4.68;;;6.60;99.90;;;;;;5107866;27;20121;-65
2021/12/20 00:16:22;;;;;;;25.75;4.18;;;6.60;99.90;;;;;;5109032;27;20118;-64
2021/12/20 00:18:48;;;;;;;24.10;4.07;;;6.80;99.90;;;;;;5127712;27;20051;-65
2021/12/20 00:21:14;;;;;;;19.63;3.88;;;6.60;99.90;;;;;;5127312;27;20051;-65
2021/12/20 00:23:40;;;;;;;29.02;4.30;;;6.60;99.90;;;;;;5105530;27;20110;-65
2021/12/20 00:26:06;;;;;;;26.88;4.10;;;6.60;99.90;;;;;;5108226;27;20047;-65
2021/12/20 00:28:32;;;;;;;20.95;4.00;;;6.60;99.90;;;;;;5125336;27;20054;-64
2021/12/20 00:30:57;;;;;;;20.55;3.63;;;6.50;99.90;;;;;;5108897;27;20035;-65
2021/12/20 00:33:23;;;;;;;19.77;3.65;;;6.50;99.90;;;;;;5108487;27;20057;-65
2021/12/20 00:35:49;;;;;;;21.42;3.80;;;6.50;99.90;;;;;;5125834;27;20075;-64
2021/12/20 00:41:14;;;;;;;23.80;4.35;;;6.50;99.90;;;;;;5065825;27;20428;-65
2021/12/20 00:43:39;;;;;;;25.55;4.57;;;6.50;99.90;;;;;;5106779;27;20378;-64
2021/12/20 00:46:05;;;;;;;24.88;3.60;;;6.50;99.90;;;;;;5087757;27;20035;-64
2021/12/20 00:48:31;;;;;;;21.60;4.13;;;6.50;99.90;;;;;;5126774;27;20064;-65
2021/12/20 00:50:56;;;;;;;25.55;4.25;;;6.50;99.90;;;;;;5128284;27;20114;-64
2021/12/20 00:53:22;;;;;;;18.77;3.67;;;6.50;99.90;;;;;;5127354;27;20368;-64
2021/12/20 00:55:48;;;;;;;26.02;4.38;;;6.70;99.90;;;;;;5108255;27;20070;-65
2021/12/20 00:58:15;;;;;;;30.63;5.18;;;6.40;99.90;;;;;;5125924;27;20460;-64
2021/12/20 01:00:54;;;;;;;30.88;4.20;;;6.40;99.90;;;;;;5127406;27;20349;-64
2021/12/20 01:03:21;;;;;;;26.83;3.58;;;6.40;99.90;;;;;;5105745;27;20039;-64
2021/12/20 01:05:47;;;;;;;22.05;4.40;;;6.40;99.90;;;;;;5126945;27;20498;-64
2021/12/20 01:08:14;;;;;;;25.90;4.50;;;6.30;99.90;;;;;;5108633;27;20081;-64
2021/12/20 01:10:46;;;;;;;24.35;3.80;;;6.30;99.90;;;;;;5126242;27;20035;-64
2021/12/20 01:13:13;;;;;;;21.13;3.63;;;6.30;99.90;;;;;;5124717;27;20035;-64
2021/12/20 01:15:46;;;;;;;23.20;4.05;;;6.30;99.90;;;;;;5100747;27;20044;-64
2021/12/20 01:18:13;;;;;;;27.13;4.07;;;6.30;99.90;;;;;;5123438;27;20054;-64
2021/12/20 01:20:38;;;;;;;28.17;4.30;;;6.30;99.90;;;;;;5103599;27;20486;-64
2021/12/20 01:23:05;;;;;;;24.05;3.90;;;6.30;99.90;;;;;;5125589;27;20038;-64
2021/12/20 01:25:31;;;;;;;20.15;4.18;;;6.30;99.90;;;;;;5126656;27;20039;-64
2021/12/20 01:27:57;;;;;;;25.00;4.32;;;6.30;99.90;;;;;;5119149;27;20089;-64
2021/12/20 01:30:25;;;;;;;26.48;3.95;;;6.20;99.90;;;;;;5122005;27;20062;-64
2021/12/20 01:32:51;;;;;;;30.23;4.20;;;7.00;99.90;;;;;;5103440;27;20031;-64
2021/12/20 01:35:18;;;;;;;27.23;4.47;;;6.30;99.90;;;;;;5107229;27;20043;-64
2021/12/20 01:37:44;;;;;;;31.65;4.13;;;6.30;99.90;;;;;;5106406;27;20042;-65
2021/12/20 01:40:13;;;;;;;25.60;4.45;;;6.30;99.90;;;;;;5121332;27;20035;-64
2021/12/20 01:42:40;;;;;;;23.80;4.18;;;6.30;99.90;;;;;;5106453;27;20124;-64
2021/12/20 01:45:12;;;;;;;20.83;4.03;;;6.40;99.90;;;;;;5126824;27;20074;-64
2021/12/20 01:47:42;;;;;;;27.70;4.30;;;6.20;99.90;;;;;;5105008;27;20366;-64
2021/12/20 01:50:17;;;;;;;25.27;4.03;;;6.30;99.90;;;;;;5109194;27;20035;-64
2021/12/20 01:52:43;;;;;;;27.42;4.20;;;6.20;99.90;;;;;;5106338;27;20051;-64
2021/12/20 01:55:12;;;;;;;21.00;3.72;;;6.20;99.90;;;;;;5124165;27;20039;-64
2021/12/20 01:57:38;;;;;;;26.60;4.05;;;6.20;99.90;;;;;;5102731;27;20031;-64
2021/12/20 02:00:13;;;;;;;23.67;4.13;;;6.20;99.90;;;;;;5126608;27;20089;-64
2021/12/20 02:02:40;;;;;;;26.88;4.85;;;6.20;99.90;;;;;;5121961;27;20055;-64
2021/12/20 02:05:20;;;;;;;24.80;4.07;;;6.20;99.90;;;;;;5107048;27;20039;-64
2021/12/20 02:08:02;;;;;;;18.77;3.65;;;6.30;99.90;;;;;;5125988;27;20047;-64
2021/12/20 02:10:29;;;;;;;28.20;4.43;;;6.20;99.90;;;;;;5102707;27;20047;-64
2021/12/20 02:12:56;;;;;;;25.98;4.25;;;6.20;99.90;;;;;;5106056;28;20110;-64
2021/12/20 02:15:22;;;;;;;24.55;4.30;;;6.30;99.90;;;;;;5109490;27;20071;-64
2021/12/20 02:17:47;;;;;;;21.38;4.45;;;6.20;99.90;;;;;;5124375;27;20074;-64
2021/12/20 02:20:25;;;;;;;19.90;3.63;;;6.20;99.90;;;;;;5104814;28;20438;-64
2021/12/20 02:22:54;;;;;;;28.33;4.38;;;6.20;99.90;;;;;;5125139;27;20038;-65
2021/12/20 02:25:19;;;;;;;26.85;4.57;;;6.20;99.90;;;;;;5103087;28;20506;-64
2021/12/20 02:27:46;;;;;;;27.48;4.00;;;6.20;99.90;;;;;;5085076;28;20111;-64
2021/12/20 02:30:35;;;;;;;21.65;3.72;;;6.20;99.90;;;;;;5104905;28;20052;-64
2021/12/20 02:38:41;;;;;;;23.50;3.83;;;6.30;99.90;;;;;;5033830;28;20053;-64
2021/12/20 02:41:12;;;;;;;24.55;4.38;;;6.20;99.90;;;;;;5105283;28;20035;-64
2021/12/20 02:43:41;;;;;;;22.90;4.00;;;6.30;99.90;;;;;;5104711;28;20082;-64
2021/12/20 02:49:24;;;;;;;20.17;3.85;;;6.30;99.90;;;;;;5120054;28;20523;-64
2021/12/20 02:51:52;;;;;;;;;;;6.30;99.90;;;;;;5122867;28;20035;-64
2021/12/20 02:54:20;;;;;;;23.00;3.17;;;6.30;99.90;;;;;;5119221;28;20411;-64
2021/12/20 02:56:47;;;;;;;27.33;3.90;;;6.30;99.90;;;;;;5104930;28;20039;-64
2021/12/20 02:59:14;;;;;;;19.92;3.88;;;6.30;99.90;;;;;;5106674;28;20122;-64
2021/12/20 03:01:42;;;;;;;16.80;3.42;;;6.30;99.90;;;;;;5121760;28;20027;-64
2021/12/20 03:04:09;;;;;;;22.48;4.13;;;6.30;99.90;;;;;;5107011;28;20035;-64
2021/12/20 03:06:44;;;;;;;17.13;3.45;;;6.30;99.90;;;;;;5102149;28;20130;-64
2021/12/20 03:09:15;;;;;;;20.10;3.50;;;6.30;99.90;;;;;;5105899;28;20837;-64
2021/12/20 03:11:42;;;;;;;21.58;2.95;;;6.20;99.90;;;;;;5122540;28;20043;-64
2021/12/20 03:14:25;;;;;;;17.48;3.50;;;6.20;99.90;;;;;;5102940;28;20039;-64
2021/12/20 03:16:51;;;;;;;18.10;3.25;;;6.20;99.90;;;;;;5123296;27;20063;-64
2021/12/20 03:19:17;;;;;;;18.50;3.53;;;6.20;99.90;;;;;;5107747;27;20466;-64
2021/12/20 03:21:43;;;;;;;23.35;3.15;;;6.20;99.90;;;;;;5124925;27;20035;-64
2021/12/20 03:24:08;;;;;;;20.02;3.25;;;6.20;99.90;;;;;;5128082;27;20074;-64
2021/12/20 03:26:34;;;;;;;20.10;2.80;;;6.10;99.90;;;;;;5124001;27;20680;-64
2021/12/20 03:29:01;;;;;;;19.60;3.60;;;6.10;99.90;;;;;;5107943;27;20062;-64
2021/12/20 03:31:27;;;;;;;18.45;2.42;;;6.20;99.90;;;;;;5106605;27;20043;-64
2021/12/20 03:33:52;;;;;;;11.23;2.45;;;6.20;99.90;;;;;;5126359;27;20540;-64
2021/12/20 03:36:18;;;;;;;17.33;2.53;;;6.20;99.90;;;;;;5100373;28;20040;-64
2021/12/20 03:38:44;;;;;;;16.50;2.55;;;6.30;99.90;;;;;;5102636;27;20119;-64
2021/12/20 03:41:10;;;;;;;16.23;2.70;;;6.30;99.90;;;;;;5108838;27;20558;-64
2021/12/20 03:43:36;;;;;;;14.68;2.53;;;6.30;99.90;;;;;;5088784;27;20043;-64
2021/12/20 03:46:04;;;;;;;20.08;2.75;;;6.40;99.90;;;;;;5097642;27;20101;-64
2021/12/20 03:48:30;;;;;;;16.60;2.50;;;6.30;99.90;;;;;;5107743;27;20043;-64
2021/12/20 03:50:56;;;;;;;13.85;2.63;;;6.30;99.90;;;;;;5106692;27;20554;-64
2021/12/20 03:53:22;;;;;;;25.77;2.80;;;6.20;99.90;;;;;;5126133;27;20043;-64
2021/12/20 03:55:48;;;;;;;13.52;2.45;;;6.20;99.90;;;;;;5104780;27;20046;-64
2021/12/20 03:58:14;;;;;;;20.20;2.83;;;6.20;99.90;;;;;;5125007;27;20570;-64
2021/12/20 04:00:40;;;;;;;10.05;1.92;;;6.20;99.90;;;;;;5128347;27;20039;-64
2021/12/20 04:03:11;;;;;;;11.70;2.40;;;6.20;99.90;;;;;;5128650;27;20039;-64
2021/12/20 04:05:37;;;;;;;17.08;2.70;;;6.20;99.90;;;;;;5123679;27;20096;-64
2021/12/20 04:08:03;;;;;;;14.57;2.38;;;6.10;99.90;;;;;;5125657;27;21264;-64
2021/12/20 04:10:28;;;;;;;17.15;2.47;;;6.10;99.90;;;;;;5103790;27;20050;-64
2021/12/20 04:12:54;;;;;;;19.63;2.50;;;6.10;99.90;;;;;;5105199;27;20054;-64
2021/12/20 04:15:20;;;;;;;16.77;2.40;;;6.00;99.90;;;;;;5107903;27;20035;-64
2021/12/20 04:17:45;;;;;;;11.85;2.80;;;6.00;99.90;;;;;;5123323;27;20101;-64
2021/12/20 04:20:11;;;;;;;18.60;2.50;;;6.10;99.90;;;;;;5126395;27;20043;-64
2021/12/20 04:22:37;;;;;;;16.52;3.05;;;5.90;99.90;;;;;;5121343;27;20122;-64
2021/12/20 04:25:03;;;;;;;14.18;2.58;;;5.90;99.90;;;;;;5107775;27;20146;-64
2021/12/20 04:27:29;;;;;;;16.13;2.75;;;5.90;99.90;;;;;;5108794;27;20722;-64
2021/12/20 04:29:55;;;;;;;14.73;2.67;;;5.90;99.90;;;;;;5124303;27;20398;-64
2021/12/20 04:32:21;;;;;;;12.63;2.83;;;6.10;99.90;;;;;;5129043;27;20058;-64
2021/12/20 04:34:47;;;;;;;14.85;2.40;;;5.80;99.90;;;;;;5106882;27;20101;-64
2021/12/20 04:37:13;;;;;;;16.17;2.40;;;5.80;99.90;;;;;;5109767;27;20455;-65
2021/12/20 04:39:39;;;;;;;10.07;2.67;;;5.80;99.90;;;;;;5105859;27;20059;-64
2021/12/20 04:42:06;;;;;;;16.00;2.58;;;5.80;99.90;;;;;;5087929;27;20057;-64
2021/12/20 04:44:31;;;;;;;18.45;2.97;;;5.80;99.90;;;;;;5108023;27;20036;-64
2021/12/20 04:46:57;;;;;;;19.50;2.95;;;5.90;99.90;;;;;;5107509;27;20046;-64
2021/12/20 04:49:24;;;;;;;17.48;2.65;;;5.80;99.90;;;;;;5126375;27;20038;-64
2021/12/20 04:51:53;;;;;;;17.20;2.40;;;5.80;99.90;;;;;;5127386;27;20043;-64
2021/12/20 04:54:18;;;;;;;17.75;2.50;;;5.80;99.90;;;;;;5107718;27;20494;-64
2021/12/20 04:56:44;;;;;;;9.02;1.92;;;5.70;99.90;;;;;;5107779;27;20091;-64
2021/12/20 04:59:10;;;;;;;14.88;2.30;;;5.70;99.90;;;;;;5124840;27;20087;-64
2021/12/20 05:01:35;;;;;;;15.40;2.35;;;5.70;99.90;;;;;;5105454;27;20035;-64
2021/12/20 05:04:01;;;;;;;12.18;2.22;;;5.70;99.90;;;;;;5091078;27;20070;-64
2021/12/20 05:06:29;;;;;;;19.80;2.90;;;5.60;99.90;;;;;;5105425;27;20044;-64
2021/12/20 05:08:55;;;;;;;12.65;2.55;;;5.50;99.90;;;;;;5106420;27;20043;-64
2021/12/20 05:11:22;;;;;;;9.93;2.20;;;5.50;99.90;;;;;;5106769;27;20039;-64
2021/12/20 05:13:48;;;;;;;16.42;2.60;;;5.50;99.90;;;;;;5122922;27;20042;-64
2021/12/20 05:16:14;;;;;;;11.40;2.60;;;5.50;99.90;;;;;;5108139;27;20043;-64
2021/12/20 05:18:40;;;;;;;15.65;2.67;;;5.50;99.90;;;;;;5116723;27;20055;-64
2021/12/20 05:21:05;;;;;;;19.67;2.55;;;5.50;99.90;;;;;;5105303;28;20055;-64
2021/12/20 05:23:31;;;;;;;14.82;2.22;;;5.50;99.90;;;;;;5102932;28;20044;-65
2021/12/20 05:25:57;;;;;;;17.90;2.60;;;5.50;99.90;;;;;;5102006;28;20051;-65
2021/12/20 05:28:23;;;;;;;18.85;2.53;;;5.50;99.90;;;;;;5102231;28;20031;-64
2021/12/20 05:30:52;;;;;;;13.05;2.33;;;5.50;99.90;;;;;;5100914;28;20058;-64
2021/12/20 05:33:18;;;;;;;14.82;2.70;;;5.50;99.90;;;;;;5099706;28;20050;-64
2021/12/20 05:35:43;;;;;;;19.23;2.65;;;5.50;99.90;;;;;;5121009;27;20075;-64
2021/12/20 05:38:09;;;;;;;16.60;2.97;;;5.50;99.90;;;;;;5099377;28;20092;-64
2021/12/20 05:40:35;;;;;;;14.23;2.47;;;5.60;99.90;;;;;;5100370;28;20392;-64
2021/12/20 05:43:02;;;;;;;13.40;3.03;;;5.80;99.90;;;;;;5100944;28;20075;-64
2021/12/20 05:45:28;;;;;;;11.77;2.47;;;5.60;99.90;;;;;;5105738;28;20047;-64
2021/12/20 05:47:54;;;;;;;11.20;2.58;;;5.60;99.90;;;;;;5102228;28;20054;-64
2021/12/20 05:50:22;;;;;;;9.48;2.38;;;5.60;99.90;;;;;;5102872;28;20056;-66
2021/12/20 05:52:47;;;;;;;16.75;2.75;;;5.60;99.90;;;;;;5102008;28;20063;-64
2021/12/20 05:55:13;;;;;;;10.48;2.53;;;5.60;99.90;;;;;;5121416;27;20044;-64
2021/12/20 05:57:39;;;;;;;21.13;2.80;;;5.70;99.90;;;;;;5103854;28;20119;-64
2021/12/20 06:00:09;;;;;;;17.05;2.55;;;5.70;99.90;;;;;;5103071;28;20065;-64
2021/12/20 06:02:34;;;;;;;12.88;2.40;;;5.70;99.90;;;;;;5099285;28;20036;-64
2021/12/20 06:05:00;;;;;;;12.38;2.45;;;5.70;99.90;;;;;;5101708;28;20039;-64
2021/12/20 06:07:26;;;;;;;15.38;3.00;;;5.80;99.90;;;;;;5098922;28;20188;-64
2021/12/20 06:09:51;;;;;;;18.05;3.55;;;5.80;99.90;;;;;;5100647;28;20071;-64
2021/12/20 06:12:17;;;;;;;17.13;3.72;;;5.80;99.90;;;;;;5084300;28;20047;-64
2021/12/20 06:14:43;;;;;;;14.30;3.40;;;5.80;99.90;;;;;;5102249;28;20168;-64
2021/12/20 06:17:08;;;;;;;14.27;2.50;;;5.80;99.90;;;;;;5100893;28;20047;-64
2021/12/20 06:19:34;;;;;;;16.48;3.10;;;5.80;99.90;;;;;;5114875;27;20055;-64
2021/12/20 06:22:00;;;;;;;11.85;2.90;;;5.90;99.90;;;;;;5101070;28;20051;-64
2021/12/20 06:24:26;;;;;;;13.75;3.13;;;5.80;99.90;;;;;;5123686;27;20035;-64
2021/12/20 06:26:52;;;;;;;11.57;2.40;;;5.80;99.90;;;;;;5122743;27;20027;-64
2021/12/20 06:29:18;;;;;;;18.00;2.78;;;6.00;99.90;;;;;;5103081;28;20049;-65
2021/12/20 06:31:44;;;;;;;12.65;2.47;;;5.80;99.90;;;;;;5104331;28;20074;-64
2021/12/20 06:34:10;;;;;;;13.70;2.50;;;5.80;99.90;;;;;;5119779;28;20116;-65
2021/12/20 06:36:36;;;;;;;8.45;2.30;;;5.90;99.90;;;;;;5102621;28;20036;-64
2021/12/20 06:39:03;;;;;;;15.27;2.28;;;5.90;99.90;;;;;;5103345;28;20499;-64
2021/12/20 06:41:29;;;;;;;11.40;2.30;;;5.90;99.90;;;;;;5122803;28;20035;-64
2021/12/20 06:43:55;;;;;;;13.23;2.20;;;5.90;99.90;;;;;;5105410;28;20089;-64
2021/12/20 06:46:21;;;;;;;14.68;2.88;;;5.80;99.90;;;;;;5125412;28;20035;-64
2021/12/20 06:48:47;;;;;;;12.48;2.28;;;5.80;99.90;;;;;;5083386;28;20054;-64
2021/12/20 06:51:13;;;;;;;14.50;3.80;;;5.80;99.90;;;;;;5125317;27;20041;-64
2021/12/20 06:53:38;;;;;;;17.50;3.33;;;5.80;99.90;;;;;;5122782;27;20039;-64
2021/12/20 06:56:04;;;;;;;10.57;3.17;;;5.90;99.90;;;;;;5104125;27;20516;-64
2021/12/20 06:58:30;;;;;;;18.85;3.42;;;5.70;99.90;;;;;;5111048;27;20111;-64
2021/12/20 07:00:56;;;;;;;17.67;3.55;;;5.70;99.90;;;;;;5123442;27;20039;-64
2021/12/20 07:03:22;;;;;;;13.77;2.90;;;5.60;99.90;;;;;;5102448;27;20072;-64
2021/12/20 07:05:49;;;;;;;14.45;2.85;;;5.60;99.90;;;;;;5106302;27;20071;-65
2021/12/20 07:08:15;;;;;;;13.60;2.97;;;5.60;99.90;;;;;;5107337;27;20513;-64
2021/12/20 07:10:41;;;;;;;8.68;2.08;;;5.60;99.90;;;;;;5125231;27;20053;-64
2021/12/20 07:13:08;;;;;;;12.75;2.75;;;5.60;99.90;;;;;;5128357;27;20877;-64
2021/12/20 07:15:33;;;;;;;14.77;2.70;;;5.60;99.90;;;;;;5125849;27;20054;-64
2021/12/20 07:17:59;;;;;;;15.60;2.08;;;5.50;99.90;;;;;;5104166;27;20047;-64
2021/12/20 07:20:26;;;;;;;16.00;2.22;;;5.80;99.90;;;;;;5107799;27;20126;-64
2021/12/20 07:22:51;;;;;;;14.48;2.53;;;5.40;99.90;;;;;;5086418;27;20070;-64
2021/12/20 07:25:19;;;;;;;12.48;2.55;;;5.30;99.90;;;;;;5105826;27;20487;-64
2021/12/20 07:27:50;;;;;;;13.95;2.25;;;5.20;99.90;;;;;;5127344;27;20393;-64
2021/12/20 07:30:17;;;;;;;9.73;1.95;;;5.20;99.90;;;;;;5108696;27;20498;-64
2021/12/20 07:32:43;;;;;;;12.02;1.77;;;5.10;99.90;;;;;;5103599;27;20035;-64
2021/12/20 07:35:09;;;;;;;12.85;2.40;;;5.00;99.90;;;;;;5108081;27;20039;-64
2021/12/20 07:37:35;;;;;;;10.18;1.98;;;4.90;99.90;;;;;;5111725;27;20054;-64
2021/12/20 07:40:01;;;;;;;7.72;1.85;;;4.90;99.90;;;;;;5125387;27;20043;-64
2021/12/20 07:42:26;;;;;;;11.25;1.80;;;4.80;99.90;;;;;;5125235;27;20042;-64
2021/12/20 07:44:52;;;;;;;8.25;1.90;;;4.80;99.90;;;;;;5107087;27;20398;-64
2021/12/20 07:47:18;;;;;;;7.68;1.80;;;4.80;99.90;;;;;;5106305;27;20062;-64
2021/12/20 07:49:44;;;;;;;14.20;2.10;;;4.70;99.90;;;;;;5127036;27;20049;-64
2021/12/20 07:52:10;;;;;;;10.80;1.70;;;4.70;99.90;;;;;;5108033;27;20118;-64
2021/12/20 07:54:35;;;;;;;11.45;1.98;;;4.70;99.90;;;;;;5107642;27;20134;-64
2021/12/20 07:57:01;;;;;;;11.13;2.22;;;4.70;99.90;;;;;;5105381;27;20081;-64
2021/12/20 07:59:27;;;;;;;10.10;2.65;;;4.70;99.90;;;;;;5105756;27;20454;-64
2021/12/20 08:01:52;;;;;;;11.25;2.33;;;4.70;99.90;;;;;;5111676;27;20375;-65
2021/12/20 08:04:21;;;;;;;10.55;2.55;;;4.70;99.90;;;;;;5107315;27;20067;-64
2021/12/20 08:06:46;;;;;;;8.45;2.38;;;4.60;99.90;;;;;;5108924;27;20504;-64
2021/12/20 08:09:14;;;;;;;9.25;2.08;;;4.60;99.90;;;;;;5085757;27;20078;-64
2021/12/20 08:11:40;;;;;;;11.30;2.25;;;4.60;99.90;;;;;;5104720;27;20757;-65
2021/12/20 08:14:06;;;;;;;10.98;2.05;;;4.60;99.90;;;;;;5126678;27;20085;-64
2021/12/20 08:16:32;;;;;;;17.77;2.47;;;4.60;99.90;;;;;;5127805;27;20068;-64
2021/12/20 08:18:57;;;;;;;8.73;1.90;;;4.60;99.90;;;;;;5107275;27;20047;-64
2021/12/20 08:21:23;;;;;;;11.32;2.30;;;4.50;99.90;;;;;;5124183;27;20561;-65
2021/12/20 08:23:49;;;;;;;10.63;2.03;;;4.50;99.90;;;;;;5105098;27;20038;-65
2021/12/20 08:26:16;;;;;;;13.18;2.60;;;4.50;99.90;;;;;;5108718;27;20039;-65
2021/12/20 08:28:41;;;;;;;7.65;2.13;;;4.50;99.90;;;;;;5108335;27;20360;-65
2021/12/20 08:31:08;;;;;;;11.52;2.17;;;4.50;99.90;;;;;;5104644;27;20109;-65
2021/12/20 08:33:35;;;;;;;9.38;2.10;;;4.50;99.90;;;;;;5103714;27;20042;-66
2021/12/20 08:36:03;;;;;;;14.40;2.20;;;4.40;99.90;;;;;;5105073;27;20055;-66
2021/12/20 08:38:29;;;;;;;14.32;2.70;;;4.50;99.90;;;;;;5097072;27;20471;-66
2021/12/20 08:40:55;;;;;;;17.25;3.08;;;4.50;99.90;;;;;;5113344;27;20096;-64
2021/12/20 08:43:21;;;;;;;16.38;2.63;;;4.50;99.90;;;;;;5121429;27;20486;-65
2021/12/20 08:45:48;;;;;;;11.07;2.22;;;4.60;99.90;;;;;;5123906;27;20046;-65
2021/12/20 08:48:14;;;;;;;16.35;3.00;;;4.50;99.90;;;;;;5121730;27;20054;-65
2021/12/20 08:50:40;;;;;;;22.20;3.42;;;4.50;99.90;;;;;;5120319;27;20099;-65
2021/12/20 08:53:07;;;;;;;12.23;2.90;;;4.50;99.90;;;;;;5086696;27;20099;-65
2021/12/20 08:55:33;;;;;;;10.25;2.22;;;4.50;99.90;;;;;;5121762;27;20145;-65
2021/12/20 08:57:59;;;;;;;17.55;3.88;;;4.60;99.90;;;;;;5101423;27;20087;-66
2021/12/20 09:00:28;;;;;;;15.77;2.78;;;4.60;99.90;;;;;;5104715;27;20510;-65
2021/12/20 09:02:55;;;;;;;15.00;3.00;;;4.70;99.90;;;;;;5102647;27;20480;-66
2021/12/20 09:05:22;;;;;;;17.20;2.80;;;4.80;99.90;;;;;;5118838;27;20094;-66
2021/12/20 09:07:48;;;;;;;16.17;2.80;;;4.70;99.90;;;;;;5119897;27;20039;-66
2021/12/20 09:10:15;;;;;;;17.63;3.10;;;4.70;99.90;;;;;;5120329;27;20028;-65
2021/12/20 09:12:42;;;;;;;24.85;3.50;;;4.70;99.90;;;;;;5104210;27;20834;-66
2021/12/20 09:15:09;;;;;;;19.77;3.15;;;4.70;99.90;;;;;;5123604;27;20084;-66
2021/12/20 09:17:35;;;;;;;15.00;3.15;;;4.70;99.90;;;;;;5101124;27;20047;-66
2021/12/20 09:20:01;;;;;;;14.73;2.72;;;4.70;99.90;;;;;;5122872;27;20040;-66
2021/12/20 09:22:29;;;;;;;16.30;2.90;;;4.70;99.90;;;;;;5099288;27;20050;-66
2021/12/20 09:24:55;;;;;;;16.63;2.85;;;4.70;99.90;;;;;;5101312;27;20047;-66
2021/12/20 09:27:21;;;;;;;15.93;2.85;;;4.70;99.90;;;;;;5122253;27;20395;-66
2021/12/20 09:29:47;;;;;;;17.95;3.25;;;4.80;99.90;;;;;;5120877;27;20042;-66
2021/12/20 09:32:13;;;;;;;18.83;3.45;;;4.70;99.90;;;;;;5099000;27;20051;-66
2021/12/20 09:34:39;;;;;;;23.48;3.88;;;4.70;99.90;;;;;;5121148;27;20469;-66
2021/12/20 09:37:07;;;;;;;20.85;3.67;;;4.80;99.90;;;;;;5100117;27;20074;-66
2021/12/20 09:39:37;;;;;;;18.35;3.00;;;4.80;99.90;;;;;;5120463;27;20495;-65
2021/12/20 09:42:03;;;;;;;16.13;2.90;;;4.80;99.90;;;;;;5125156;27;20571;-65
2021/12/20 09:44:30;;;;;;;22.85;3.13;;;4.90;99.90;;;;;;5121837;27;20027;-65
2021/12/20 09:46:57;;;;;;;25.92;4.15;;;4.90;99.90;;;;;;5086503;27;20096;-65
2021/12/20 09:49:24;;;;;;;19.73;3.83;;;4.90;99.90;;;;;;5116470;27;20047;-66
2021/12/20 09:51:50;;;;;;;23.70;3.65;;;4.90;99.90;;;;;;5102785;27;20043;-66
2021/12/20 09:54:16;;;;;;;16.13;3.28;;;4.90;99.90;;;;;;5102103;27;20042;-65
2021/12/20 09:56:43;;;;;;;17.58;3.08;;;4.90;99.90;;;;;;5102011;27;20069;-66
2021/12/20 09:59:16;;;;;;;20.33;3.55;;;4.90;99.90;;;;;;5124875;27;20047;-65
2021/12/20 10:01:44;;;;;;;22.48;4.00;;;5.00;99.90;;;;;;5102046;27;20054;-65
2021/12/20 10:04:10;;;;;;;27.65;3.90;;;4.90;99.90;;;;;;5103951;27;20047;-65
2021/12/20 10:06:37;;;;;;;17.75;3.85;;;4.90;99.90;;;;;;5103132;27;20059;-65
2021/12/20 10:09:12;;;;;;;23.45;4.03;;;5.00;99.90;;;;;;5113892;27;20043;-65
2021/12/20 10:11:39;;;;;;;24.38;4.53;;;5.00;99.90;;;;;;5120818;27;20035;-65
2021/12/20 10:14:11;;;;;;;21.63;3.85;;;5.10;99.90;;;;;;5102518;27;20066;-66
2021/12/20 10:16:40;;;;;;;27.50;4.30;;;5.10;99.90;;;;;;5100405;27;20042;-66
2021/12/20 10:19:26;;;;;;;28.83;4.30;;;5.20;99.90;;;;;;5098269;27;20323;-66
2021/12/20 10:21:52;;;;;;;24.13;3.90;;;5.50;99.90;;;;;;5102494;28;20126;-65
2021/12/20 10:24:47;;;;;;;17.63;4.50;;;5.20;99.90;;;;;;5098972;28;20134;-66
2021/12/20 10:27:34;;;;;;;24.60;5.25;;;5.30;99.90;;;;;;5105602;27;20097;-66
2021/12/20 10:30:18;;;;;;;31.63;5.80;;;5.30;99.90;;;;;;5118217;27;20047;-65
2021/12/20 10:32:44;;;;;;;25.33;5.18;;;5.30;99.90;;;;;;5095879;28;20102;-65
2021/12/20 10:35:26;;;;;;;31.60;6.25;;;5.30;99.90;;;;;;5099832;28;20116;-66
2021/12/20 10:37:54;;;;;;;33.80;5.63;;;5.40;99.90;;;;;;5116576;27;20035;-66
2021/12/20 10:40:20;;;;;;;23.98;4.68;;;5.40;99.90;;;;;;5122656;27;20047;-66
2021/12/20 10:42:46;;;;;;;27.70;4.80;;;5.50;99.90;;;;;;5117067;28;20047;-65
2021/12/20 10:45:14;;;;;;;36.60;4.97;;;5.50;99.90;;;;;;5094648;28;20047;-66
2021/12/20 10:47:42;;;;;;;29.15;5.55;;;5.60;99.90;;;;;;5111073;28;20563;-66
2021/12/20 10:50:28;;;;;;;37.47;6.22;;;5.60;99.90;;;;;;5109766;27;20499;-66
2021/12/20 10:53:15;;;;;;;32.47;4.90;;;5.60;99.90;;;;;;5095374;28;20040;-66
2021/12/20 10:55:42;;;;;;;21.95;4.00;;;5.60;99.90;;;;;;5100021;28;20039;-66
2021/12/20 10:58:38;;;;;;;26.73;5.65;;;5.60;99.90;;;;;;5096048;28;20110;-66
2021/12/20 11:01:12;;;;;;;34.72;5.55;;;5.60;99.90;;;;;;5079553;28;20423;-66
2021/12/20 11:03:40;;;;;;;22.98;4.40;;;5.70;99.90;;;;;;5121233;28;20428;-66
2021/12/20 11:09:05;;;;;;;27.80;4.90;;;5.70;99.90;;;;;;5119432;27;20055;-66
2021/12/20 11:11:48;;;;;;;29.15;5.82;;;5.70;99.90;;;;;;5096835;28;20514;-66
2021/12/20 11:14:14;;;;;;;28.27;5.05;;;5.70;99.90;;;;;;5098193;28;20700;-66
2021/12/20 11:16:41;;;;;;;34.97;5.15;;;5.70;99.90;;;;;;5083966;28;20051;-66
2021/12/20 11:19:07;;;;;;;23.45;4.13;;;5.80;99.90;;;;;;5101254;28;20691;-66
2021/12/20 11:21:38;;;;;;;22.00;4.68;;;5.70;99.90;;;;;;5096130;28;20047;-66
2021/12/20 11:24:10;;;;;;;31.33;4.97;;;5.80;99.90;;;;;;5101957;28;20035;-66
2021/12/20 11:26:37;;;;;;;34.65;5.15;;;5.80;99.90;;;;;;5099455;28;20565;-66
2021/12/20 11:29:04;;;;;;;32.50;4.93;;;5.80;99.90;;;;;;5102230;28;20085;-66
2021/12/20 11:31:29;;;;;;;37.33;5.65;;;5.90;99.90;;;;;;5100261;28;20164;-66
2021/12/20 11:33:55;;;;;;;21.33;4.30;;;5.80;99.90;;;;;;5117942;28;20587;-66
2021/12/20 11:36:21;;;;;;;24.85;5.20;;;5.80;99.90;;;;;;5098814;28;20047;-66
2021/12/20 11:38:47;;;;;;;22.48;4.82;;;5.80;99.90;;;;;;5093575;27;20075;-66
2021/12/20 11:41:13;;;;;;;26.63;4.10;;;5.90;99.90;;;;;;5109481;27;20036;-66
2021/12/20 11:43:39;;;;;;;27.27;4.18;;;5.90;99.90;;;;;;5105072;27;20128;-66
2021/12/20 11:46:07;;;;;;;28.08;4.78;;;6.10;99.90;;;;;;5110048;27;21675;-66
2021/12/20 11:48:37;;;;;;;25.05;3.45;;;5.80;99.90;;;;;;5125815;27;20095;-66
2021/12/20 11:51:03;;;;;;;20.20;4.10;;;5.90;99.90;;;;;;5127330;27;20106;-66
2021/12/20 11:53:35;;;;;;;23.70;3.90;;;5.90;99.90;;;;;;5121017;27;20044;-66
2021/12/20 11:56:01;;;;;;;22.38;4.03;;;5.90;99.90;;;;;;5102483;27;20035;-66
2021/12/20 11:58:30;;;;;;;22.15;3.95;;;5.90;99.90;;;;;;5108512;27;20048;-66
2021/12/20 12:01:02;;;;;;;23.40;3.65;;;5.90;99.90;;;;;;5107137;27;20166;-66
2021/12/20 12:03:29;;;;;;;22.52;4.07;;;5.90;99.90;;;;;;5108031;27;20061;-66
2021/12/20 12:06:02;;;;;;;24.45;3.63;;;5.90;99.90;;;;;;5114883;27;20122;-66
2021/12/20 12:09:02;;;;;;;21.42;4.18;;;5.90;99.90;;;;;;5108587;27;20057;-65
2021/12/20 12:11:31;;;;;;;17.48;3.08;;;5.90;99.90;;;;;;5079292;27;20047;-65
2021/12/20 12:14:05;;;;;;;18.48;3.80;;;6.30;99.90;;;;;;5119468;27;20058;-66
2021/12/20 12:16:49;;;;;;;21.60;3.72;;;5.90;99.90;;;;;;5103479;27;20043;-66
2021/12/20 12:19:40;;;;;;;22.33;3.70;;;6.00;99.90;;;;;;5119812;27;20413;-65
2021/12/20 12:22:31;;;;;;;19.80;4.03;;;6.00;99.90;;;;;;5123345;27;20047;-69
2021/12/20 12:24:57;;;;;;;12.65;3.40;;;6.10;99.90;;;;;;5073712;27;20429;-68
2021/12/20 12:27:25;;;;;;;16.70;3.22;;;6.10;99.90;;;;;;5105014;27;20030;-68
2021/12/20 12:30:16;;;;;;;20.92;3.33;;;6.10;99.90;;;;;;5103281;27;20035;-68
2021/12/20 12:32:48;;;;;;;14.93;2.70;;;6.10;99.90;;;;;;5127662;27;20066;-68
2021/12/20 12:35:39;;;;;;;15.25;3.90;;;6.20;99.90;;;;;;5079643;27;20051;-68
2021/12/20 12:38:22;;;;;;;15.77;3.35;;;6.20;99.90;;;;;;5101794;28;20059;-68
2021/12/20 12:41:11;;;;;;;13.98;3.25;;;6.20;99.90;;;;;;5103653;27;20070;-68
2021/12/20 12:44:07;;;;;;;15.43;3.05;;;6.20;99.90;;;;;;5106246;27;20043;-68
2021/12/20 12:46:36;;;;;;;14.23;3.17;;;6.20;99.90;;;;;;5107922;27;20100;-68
2021/12/20 12:49:20;;;;;;;9.48;2.92;;;6.30;99.90;;;;;;5105101;27;20046;-68
2021/12/20 12:51:48;;;;;;;14.85;2.35;;;6.30;99.90;;;;;;5106616;27;20046;-68
2021/12/20 12:54:32;;;;;;;10.60;2.88;;;6.30;99.90;;;;;;5108425;27;20039;-66
2021/12/20 12:57:10;;;;;;;13.55;2.55;;;6.30;99.90;;;;;;5108282;27;20043;-66
2021/12/20 12:59:54;;;;;;;10.32;2.30;;;6.30;99.90;;;;;;5125925;27;20399;-66
2021/12/20 13:02:31;;;;;;;15.45;3.22;;;6.30;99.90;;;;;;5091984;27;20516;-66
2021/12/20 13:05:13;;;;;;;15.00;3.20;;;6.60;99.90;;;;;;5109308;27;20046;-66
2021/12/20 13:07:43;;;;;;;12.15;3.38;;;6.30;99.90;;;;;;5107689;27;20050;-66
2021/12/20 13:10:14;;;;;;;8.43;2.70;;;6.20;99.90;;;;;;5109171;27;20062;-66